Time;durP1;ratioP1;P1;durP2;ratioP2;P2;SDS_P1;SDS_P2;PMS_P1;PMS_P2;Temp;Humidity;BMP_temperature;BMP_pressure;BME280_temperature;BME280_humidity;BME280_pressure;Samples;Min_cycle;Max_cycle;Signal;HPM_P1;HPM_P2
2023/01/03 00:01:12;;;;;;;;;;;3.60;99.90;;;;;;5096605;28;20043;-88
2023/01/03 00:03:38;;;;;;;0.10;0.10;;;2.90;99.90;;;;;;5078739;28;20411;-91
2023/01/03 00:06:04;;;;;;;0.67;0.33;;;2.90;99.90;;;;;;5072721;28;20069;-88
2023/01/03 00:08:30;;;;;;;0.30;0.10;;;2.90;99.90;;;;;;5076048;28;20050;-88
2023/01/03 00:10:55;;;;;;;0.30;0.23;;;2.90;99.90;;;;;;5094726;28;20039;-88
2023/01/03 00:13:21;;;;;;;0.10;0.10;;;2.80;99.90;;;;;;5078047;28;20078;-88
2023/01/03 00:15:47;;;;;;;0.23;0.13;;;2.80;99.90;;;;;;5077821;28;20044;-88
2023/01/03 00:18:12;;;;;;;0.30;0.30;;;3.50;99.90;;;;;;5078087;28;20390;-91
2023/01/03 00:20:38;;;;;;;0.30;0.20;;;3.70;99.90;;;;;;5060606;28;20051;-88
2023/01/03 00:23:04;;;;;;;0.67;0.20;;;2.80;99.90;;;;;;5078313;28;20100;-88
2023/01/03 00:25:30;;;;;;;0.30;0.13;;;3.20;99.90;;;;;;5093308;28;20036;-88
2023/01/03 00:27:55;;;;;;;0.27;0.10;;;2.80;99.90;;;;;;5095675;28;20067;-88
2023/01/03 00:30:22;;;;;;;0.73;0.40;;;3.00;99.90;;;;;;5059281;28;20570;-89
2023/01/03 00:32:47;;;;;;;0.10;0.10;;;2.80;99.90;;;;;;5075479;28;20039;-91
2023/01/03 00:35:13;;;;;;;1.00;0.20;;;3.00;99.90;;;;;;5077238;28;20031;-90
2023/01/03 00:37:39;;;;;;;0.87;0.47;;;2.70;99.90;;;;;;5091455;28;20059;-88
2023/01/03 00:40:05;;;;;;;0.10;0.10;;;3.40;99.90;;;;;;5075965;28;20509;-88
2023/01/03 00:43:27;;;;;;;0.20;0.20;;;2.60;99.90;;;;;;5093549;28;20051;-91
2023/01/03 00:45:16;;;;;;;0.20;0.17;;;2.60;99.90;;;;;;5079559;28;20294;-88
2023/01/03 00:47:42;;;;;;;0.37;0.37;;;2.60;99.90;;;;;;5093490;28;20035;-90
2023/01/03 00:50:07;;;;;;;0.00;0.00;;;2.60;99.90;;;;;;5059432;28;20075;-88
2023/01/03 00:52:33;;;;;;;0.00;0.00;;;2.60;99.90;;;;;;5057543;28;20192;-88
2023/01/03 00:54:59;;;;;;;0.07;0.07;;;2.60;99.90;;;;;;5075627;28;20101;-88
2023/01/03 00:57:24;;;;;;;0.40;0.40;;;2.50;99.90;;;;;;5057642;28;20040;-88
2023/01/03 00:59:50;;;;;;;0.30;0.10;;;2.50;99.90;;;;;;5075350;28;20043;-88
2023/01/03 01:02:19;;;;;;;0.10;0.10;;;3.20;99.90;;;;;;5083669;28;20048;-88
2023/01/03 01:04:44;;;;;;;0.25;0.20;;;2.50;99.90;;;;;;5094898;28;20146;-91
2023/01/03 01:07:10;;;;;;;0.10;0.10;;;2.90;99.90;;;;;;5077471;28;20236;-92
2023/01/03 01:09:36;;;;;;;0.57;0.20;;;2.60;99.90;;;;;;5077353;28;20058;-88
2023/01/03 01:12:04;;;;;;;0.10;0.10;;;2.60;99.90;;;;;;5076372;28;20090;-88
2023/01/03 01:14:32;;;;;;;0.20;0.20;;;2.60;99.90;;;;;;5093074;28;20054;-88
2023/01/03 01:17:01;;;;;;;0.43;0.15;;;2.70;99.90;;;;;;5090863;28;20082;-88
2023/01/03 01:19:35;;;;;;;3.38;0.57;;;2.70;99.90;;;;;;5093504;28;20050;-93
2023/01/03 01:22:01;;;;;;;0.30;0.30;;;2.80;99.90;;;;;;5092308;28;20398;-88
2023/01/03 01:24:27;;;;;;;1.00;0.43;;;2.80;99.90;;;;;;5091380;28;20040;-92
2023/01/03 01:26:53;;;;;;;0.15;0.15;;;3.70;99.90;;;;;;5092625;28;20494;-88
2023/01/03 01:29:20;;;;;;;0.10;0.10;;;3.80;99.90;;;;;;5093019;28;20055;-89
2023/01/03 01:31:46;;;;;;;0.73;0.73;;;2.90;99.90;;;;;;5075871;28;20129;-88
2023/01/03 01:34:12;;;;;;;0.17;0.10;;;2.90;99.90;;;;;;5074734;28;20056;-89
2023/01/03 01:36:40;;;;;;;0.10;0.10;;;3.90;99.90;;;;;;5074620;28;20044;-88
2023/01/03 01:39:16;;;;;;;0.63;0.30;;;2.90;99.90;;;;;;5080261;28;20080;-88
2023/01/03 01:44:53;;;;;;;0.95;0.40;;;3.30;99.90;;;;;;5085192;28;20126;-92
2023/01/03 01:47:24;;;;;;;0.10;0.10;;;3.90;99.90;;;;;;5080308;28;20461;-88
2023/01/03 01:49:55;;;;;;;0.22;0.13;;;2.80;99.90;;;;;;5066768;28;20105;-88
2023/01/03 01:52:22;;;;;;;0.30;0.30;;;2.90;99.90;;;;;;5059811;28;20429;-88
2023/01/03 01:54:50;;;;;;;0.80;0.20;;;2.80;99.90;;;;;;5062544;28;20055;-90
2023/01/03 01:57:20;;;;;;;1.25;0.30;;;2.70;99.90;;;;;;5064757;28;20036;-89
2023/01/03 01:59:46;;;;;;;0.08;0.08;;;2.80;99.90;;;;;;5069955;28;20453;-88
2023/01/03 02:02:15;;;;;;;0.60;0.47;;;2.60;99.90;;;;;;5070223;28;20047;-88
2023/01/03 02:04:42;;;;;;;0.50;0.22;;;2.60;99.90;;;;;;5053636;28;20403;-88
2023/01/03 02:07:07;;;;;;;0.15;0.15;;;2.50;99.90;;;;;;5062038;28;20047;-88
2023/01/03 02:09:34;;;;;;;0.73;0.27;;;2.90;99.90;;;;;;5041648;28;20043;-94
2023/01/03 02:15:29;;;;;;;0.63;0.50;;;2.40;99.90;;;;;;5090249;28;20049;-88
2023/01/03 02:18:10;;;;;;;0.80;0.43;;;2.40;99.90;;;;;;5059820;28;20478;-88
2023/01/03 02:20:53;;;;;;;0.35;0.35;;;3.00;99.90;;;;;;5081263;28;20051;-92
2023/01/03 02:23:24;;;;;;;0.52;0.47;;;2.40;99.90;;;;;;5078682;28;20103;-89
2023/01/03 02:26:14;;;;;;;1.00;1.00;;;3.40;99.90;;;;;;5071360;28;20098;-88
2023/01/03 02:29:17;;;;;;;0.30;0.20;;;2.30;99.90;;;;;;5066711;28;20045;-88
2023/01/03 02:32:04;;;;;;;1.17;0.30;;;2.30;99.90;;;;;;5090310;28;20044;-88
2023/01/03 02:35:11;;;;;;;0.30;0.20;;;2.30;99.90;;;;;;5060533;28;20127;-88
2023/01/03 02:37:56;;;;;;;0.75;0.75;;;2.30;99.90;;;;;;5085802;28;20083;-94
2023/01/03 02:40:53;;;;;;;0.30;0.30;;;2.20;99.90;;;;;;5095418;28;20519;-88
2023/01/03 02:43:27;;;;;;;0.35;0.20;;;2.20;99.90;;;;;;5071885;28;20511;-88
2023/01/03 02:45:57;;;;;;;0.22;0.22;;;2.20;99.90;;;;;;5076406;28;20036;-88
2023/01/03 02:48:47;;;;;;;0.50;0.45;;;2.20;99.90;;;;;;5097316;28;20122;-88
2023/01/03 02:51:35;;;;;;;1.30;0.55;;;2.20;99.90;;;;;;5079678;28;20093;-89
2023/01/03 02:54:04;;;;;;;0.17;0.17;;;2.20;99.90;;;;;;5094100;28;20051;-88
2023/01/03 02:56:54;;;;;;;0.45;0.40;;;2.20;99.90;;;;;;5093760;28;20054;-88
2023/01/03 02:59:28;;;;;;;0.43;0.43;;;2.20;99.90;;;;;;5085832;28;20043;-89
2023/01/03 03:01:54;;;;;;;0.70;0.70;;;2.20;99.90;;;;;;5095555;28;20043;-88
2023/01/03 03:04:21;;;;;;;0.73;0.23;;;2.20;99.90;;;;;;5063242;28;20042;-88
2023/01/03 03:07:03;;;;;;;0.32;0.10;;;3.60;99.90;;;;;;5079957;28;20035;-88
2023/01/03 03:09:29;;;;;;;0.73;0.28;;;2.80;99.90;;;;;;5076645;28;20101;-89
2023/01/03 03:14:47;;;;;;;0.40;0.30;;;2.20;99.90;;;;;;5095383;28;20086;-91
2023/01/03 03:17:19;;;;;;;1.38;0.30;;;2.20;99.90;;;;;;5076782;28;20043;-89
2023/01/03 03:25:36;;;;;;;0.43;0.30;;;2.10;99.90;;;;;;5094342;28;20545;-88
2023/01/03 03:31:00;;;;;;;0.40;0.40;;;2.00;99.90;;;;;;5092743;28;20043;-88
2023/01/03 03:33:29;;;;;;;0.65;0.65;;;2.00;99.90;;;;;;5096373;28;20027;-88
2023/01/03 03:36:03;;;;;;;0.40;0.20;;;3.10;99.90;;;;;;5078224;28;20043;-88
2023/01/03 03:38:38;;;;;;;0.85;0.35;;;1.90;99.90;;;;;;5076296;28;20084;-91
2023/01/03 03:47:28;;;;;;;1.45;0.65;;;1.90;99.90;;;;;;5095656;28;20105;-88
2023/01/03 03:50:00;;;;;;;0.20;0.20;;;2.70;99.90;;;;;;5078386;28;20055;-88
2023/01/03 03:52:30;;;;;;;0.40;0.40;;;1.90;99.90;;;;;;5077185;28;20043;-88
2023/01/03 03:55:20;;;;;;;1.13;0.90;;;1.90;99.90;;;;;;5094036;28;20489;-88
2023/01/03 03:57:58;;;;;;;0.85;0.82;;;1.90;99.90;;;;;;5089621;28;20040;-88
2023/01/03 04:00:28;;;;;;;0.45;0.25;;;3.00;99.90;;;;;;5092982;28;20040;-89
2023/01/03 04:02:56;;;;;;;0.20;0.20;;;1.80;99.90;;;;;;5075197;28;20032;-88
2023/01/03 04:05:24;;;;;;;1.17;0.68;;;2.00;99.90;;;;;;5075842;28;20122;-88
2023/01/03 04:07:50;;;;;;;0.30;0.22;;;1.80;99.90;;;;;;5077666;28;20047;-92
2023/01/03 04:10:19;;;;;;;0.87;0.53;;;2.50;99.90;;;;;;5095498;28;20040;-91
2023/01/03 04:12:49;;;;;;;1.90;0.55;;;2.70;99.90;;;;;;5090936;28;20046;-88
2023/01/03 04:15:15;;;;;;;1.33;0.43;;;1.70;99.90;;;;;;5075404;28;20082;-91
2023/01/03 04:17:41;;;;;;;0.30;0.25;;;1.70;99.90;;;;;;5075446;28;20071;-89
2023/01/03 04:20:08;;;;;;;0.65;0.45;;;1.80;99.90;;;;;;5076036;28;20079;-88
2023/01/03 04:22:33;;;;;;;1.17;0.50;;;1.80;99.90;;;;;;5076305;28;20106;-88
2023/01/03 04:24:59;;;;;;;0.47;0.40;;;1.80;99.90;;;;;;5095226;28;20032;-88
2023/01/03 04:27:25;;;;;;;1.07;0.77;;;1.80;99.90;;;;;;5076116;28;20482;-88
2023/01/03 04:29:50;;;;;;;0.27;0.27;;;1.80;99.90;;;;;;5078802;28;20104;-88
2023/01/03 04:32:16;;;;;;;0.50;0.47;;;1.90;99.90;;;;;;5076673;28;20394;-88
2023/01/03 04:34:45;;;;;;;0.30;0.30;;;2.30;99.90;;;;;;5062051;28;20127;-88
2023/01/03 04:37:10;;;;;;;0.65;0.65;;;1.90;99.90;;;;;;5061580;28;20048;-90
2023/01/03 04:39:36;;;;;;;0.60;0.30;;;2.30;99.90;;;;;;5078184;28;20056;-88
2023/01/03 04:44:00;;;;;;;0.93;0.87;;;2.80;99.90;;;;;;5074207;28;20105;-88
2023/01/03 04:44:49;;;;;;;1.75;0.55;;;2.00;99.90;;;;;;5075764;28;20130;-88
2023/01/03 04:47:14;;;;;;;3.83;0.57;;;3.30;99.90;;;;;;5077217;28;20189;-88
2023/01/03 04:49:46;;;;;;;0.63;0.57;;;3.00;99.90;;;;;;5095237;28;20387;-89
2023/01/03 04:52:15;;;;;;;1.45;0.55;;;2.10;99.90;;;;;;5077909;28;20455;-88
2023/01/03 04:54:41;;;;;;;2.92;1.15;;;2.10;99.90;;;;;;5090317;28;20562;-88
2023/01/03 04:57:07;;;;;;;0.60;0.60;;;2.20;99.90;;;;;;5091409;28;20040;-88
2023/01/03 04:59:33;;;;;;;1.97;0.43;;;3.30;99.90;;;;;;5061258;28;20044;-88
2023/01/03 05:02:00;;;;;;;0.20;0.20;;;2.20;99.90;;;;;;5073600;28;20054;-89
2023/01/03 05:04:25;;;;;;;0.38;0.38;;;2.20;99.90;;;;;;5091914;28;20044;-88
2023/01/03 05:06:55;;;;;;;0.60;0.50;;;2.20;99.90;;;;;;5077171;28;20098;-88
2023/01/03 05:09:21;;;;;;;0.22;0.22;;;2.30;99.90;;;;;;5077161;28;20490;-92
2023/01/03 05:11:47;;;;;;;0.60;0.45;;;2.30;99.90;;;;;;5091669;28;20048;-88
2023/01/03 05:14:12;;;;;;;0.23;0.23;;;2.30;99.90;;;;;;5074053;28;20372;-88
2023/01/03 05:16:38;;;;;;;0.43;0.43;;;2.80;99.90;;;;;;5074601;28;20061;-87
2023/01/03 05:19:04;;;;;;;0.30;0.30;;;3.50;99.90;;;;;;5090985;28;20048;-88
2023/01/03 05:27:04;;;;;;;1.83;0.43;;;2.40;99.90;;;;;;5091934;28;20055;-88
2023/01/03 05:29:30;;;;;;;1.17;0.50;;;2.40;99.90;;;;;;5076109;28;20046;-89
2023/01/03 05:31:56;;;;;;;0.57;0.43;;;2.40;99.90;;;;;;5073258;28;20036;-88
2023/01/03 05:34:21;;;;;;;2.27;0.50;;;2.60;99.90;;;;;;5075910;28;20035;-88
2023/01/03 05:36:47;;;;;;;2.83;1.00;;;2.50;99.90;;;;;;5076822;28;20067;-88
2023/01/03 05:39:13;;;;;;;1.43;0.73;;;2.40;99.90;;;;;;5074367;28;20054;-89
2023/01/03 05:44:23;;;;;;;2.60;0.70;;;2.40;99.90;;;;;;5090361;28;20078;-88
2023/01/03 05:46:49;;;;;;;1.13;1.13;;;2.60;99.90;;;;;;5090530;28;20071;-88
2023/01/03 05:49:14;;;;;;;1.03;0.70;;;2.40;99.90;;;;;;5093767;28;20040;-88
2023/01/03 05:51:40;;;;;;;2.00;1.37;;;2.40;99.90;;;;;;5042187;28;20044;-88
2023/01/03 05:54:06;;;;;;;0.53;0.50;;;2.30;99.90;;;;;;5074308;28;20092;-89
2023/01/03 05:56:32;;;;;;;1.03;0.83;;;2.30;99.90;;;;;;5092994;28;20084;-88
2023/01/03 05:58:59;;;;;;;2.77;0.50;;;2.40;99.90;;;;;;5074353;28;20413;-88
2023/01/03 06:01:25;;;;;;;3.22;0.43;;;2.20;99.90;;;;;;5102715;28;20044;-88
2023/01/03 06:03:51;;;;;;;1.13;0.73;;;2.20;99.90;;;;;;5090184;28;20044;-88
2023/01/03 06:06:17;;;;;;;0.75;0.52;;;2.40;99.90;;;;;;5094285;28;20044;-89
2023/01/03 06:08:43;;;;;;;0.40;0.30;;;2.10;99.90;;;;;;5057776;28;20042;-88
2023/01/03 06:11:14;;;;;;;0.37;0.37;;;2.10;99.90;;;;;;5076791;28;20039;-89
2023/01/03 06:13:41;;;;;;;1.50;0.80;;;2.70;99.90;;;;;;5090119;28;20513;-88
2023/01/03 06:18:54;;;;;;;2.45;1.17;;;2.30;99.90;;;;;;5092154;28;20130;-87
2023/01/03 06:21:20;;;;;;;2.37;1.43;;;2.20;99.90;;;;;;5074776;28;20127;-88
2023/01/03 06:23:46;;;;;;;0.77;0.53;;;1.90;99.90;;;;;;5093263;28;20044;-88
2023/01/03 06:26:21;;;;;;;0.63;0.33;;;1.90;99.90;;;;;;5068309;28;20043;-89
2023/01/03 06:28:47;;;;;;;3.47;0.98;;;2.60;99.90;;;;;;5090182;28;20047;-88
2023/01/03 06:31:13;;;;;;;3.00;1.30;;;1.80;99.90;;;;;;5059290;28;20040;-88
2023/01/03 06:33:39;;;;;;;1.63;1.17;;;1.80;99.90;;;;;;5091729;28;20505;-89
2023/01/03 06:36:13;;;;;;;0.38;0.38;;;1.80;99.90;;;;;;5071831;28;20482;-88
2023/01/03 06:38:39;;;;;;;1.63;0.65;;;1.70;99.90;;;;;;5076724;28;20055;-88
2023/01/03 06:41:05;;;;;;;0.30;0.30;;;1.60;99.90;;;;;;5076734;28;20097;-88
2023/01/03 06:43:31;;;;;;;2.15;1.02;;;1.60;99.90;;;;;;5083247;28;20032;-88
2023/01/03 06:54:18;;;;;;;0.80;0.32;;;1.40;99.90;;;;;;5093473;28;20073;-92
2023/01/03 06:56:44;;;;;;;0.90;0.65;;;2.20;99.90;;;;;;5094150;28;20428;-88
2023/01/03 06:59:09;;;;;;;1.40;0.87;;;2.60;99.90;;;;;;5080842;28;20040;-87
2023/01/03 07:01:35;;;;;;;2.13;0.70;;;2.80;99.90;;;;;;5080545;28;20039;-88
2023/01/03 07:04:01;;;;;;;4.50;0.63;;;2.20;99.90;;;;;;5078940;28;20090;-88
2023/01/03 07:06:27;;;;;;;1.60;0.70;;;1.30;99.90;;;;;;5061285;28;20077;-90
2023/01/03 07:08:54;;;;;;;1.60;1.20;;;2.00;99.90;;;;;;5096897;28;20440;-87
2023/01/03 07:11:22;;;;;;;2.22;0.40;;;2.50;99.90;;;;;;5080072;28;20122;-88
2023/01/03 07:13:59;;;;;;;1.17;0.98;;;1.20;99.90;;;;;;5091115;28;20044;-88
2023/01/03 07:16:30;;;;;;;0.43;0.40;;;2.50;99.90;;;;;;5057589;28;20043;-87
2023/01/03 07:18:58;;;;;;;1.13;1.13;;;1.30;99.90;;;;;;5094916;28;20281;-87
2023/01/03 07:21:25;;;;;;;2.35;0.75;;;1.60;99.90;;;;;;5080640;28;20451;-88
2023/01/03 07:23:52;;;;;;;3.10;0.80;;;2.60;99.90;;;;;;5110035;28;20046;-87
2023/01/03 07:26:18;;;;;;;2.50;1.08;;;1.40;99.90;;;;;;5060498;28;20047;-90
2023/01/03 07:28:44;;;;;;;3.67;2.37;;;2.20;99.90;;;;;;5090600;28;20071;-88
2023/01/03 07:31:10;;;;;;;0.80;0.30;;;1.20;99.90;;;;;;5094504;28;20449;-88
2023/01/03 07:33:38;;;;;;;2.80;1.07;;;2.00;99.90;;;;;;5074981;28;20087;-88
2023/01/03 07:36:09;;;;;;;2.25;0.80;;;1.20;99.90;;;;;;5058286;28;20043;-89
2023/01/03 07:38:36;;;;;;;0.40;0.40;;;1.10;99.90;;;;;;5086604;28;20135;-88
2023/01/03 07:41:02;;;;;;;;;;;1.60;99.90;;;;;;5082830;28;20048;-85
2023/01/03 07:43:36;;;;;;;1.67;0.70;;;1.10;99.90;;;;;;5079963;28;19927;-87
2023/01/03 07:46:08;;;;;;;2.28;1.27;;;1.10;99.90;;;;;;5079141;28;20032;-87
2023/01/03 07:48:34;;;;;;;0.30;0.30;;;1.10;99.90;;;;;;5067706;28;20040;-88
2023/01/03 07:51:01;;;;;;;1.05;0.95;;;2.30;99.90;;;;;;5083462;28;20063;-87
2023/01/03 07:53:27;;;;;;;1.98;1.00;;;2.00;99.90;;;;;;5063855;28;20040;-88
2023/01/03 07:55:53;;;;;;;0.63;0.63;;;2.10;99.90;;;;;;5068021;28;20044;-86
2023/01/03 07:58:22;;;;;;;1.48;0.75;;;1.60;99.90;;;;;;5055246;28;20052;-88
2023/01/03 08:00:47;;;;;;;1.92;0.75;;;1.10;99.90;;;;;;5085252;28;20041;-87
2023/01/03 08:03:14;;;;;;;2.80;1.07;;;1.10;99.90;;;;;;5066849;28;20501;-88
2023/01/03 08:05:40;;;;;;;0.73;0.40;;;2.30;99.90;;;;;;5066934;28;20044;-88
2023/01/03 08:08:05;;;;;;;0.37;0.37;;;1.10;99.90;;;;;;5053173;28;20123;-90
2023/01/03 08:13:16;;;;;;;0.35;0.32;;;2.60;99.90;;;;;;5057041;28;20128;-86
2023/01/03 08:15:45;;;;;;;1.50;0.60;;;2.00;99.90;;;;;;5086879;28;20123;-86
2023/01/03 08:18:12;;;;;;;1.55;1.27;;;1.10;99.90;;;;;;5067197;28;20055;-87
2023/01/03 08:20:39;;;;;;;0.63;0.30;;;1.00;99.90;;;;;;5066921;28;20052;-86
2023/01/03 08:23:04;;;;;;;0.55;0.30;;;1.00;99.90;;;;;;5056013;28;20051;-86
2023/01/03 08:25:30;;;;;;;0.63;0.30;;;0.90;99.90;;;;;;5065064;28;20036;-86
2023/01/03 08:27:57;;;;;;;1.13;0.83;;;2.50;99.90;;;;;;5067224;28;20041;-87
2023/01/03 08:30:23;;;;;;;0.50;0.38;;;1.80;99.90;;;;;;5089219;28;20047;-87
2023/01/03 08:32:49;;;;;;;0.22;0.22;;;0.90;99.90;;;;;;5089280;28;20044;-86
2023/01/03 08:35:16;;;;;;;1.33;0.20;;;2.10;99.90;;;;;;5062778;28;20054;-86
2023/01/03 08:37:43;;;;;;;0.65;0.50;;;2.20;99.90;;;;;;5072862;28;20306;-87
2023/01/03 08:40:11;;;;;;;1.15;0.63;;;0.80;99.90;;;;;;5067380;28;20051;-87
2023/01/03 08:42:37;;;;;;;0.00;0.00;;;0.90;99.90;;;;;;5078851;28;20449;-86
2023/01/03 08:45:08;;;;;;;1.93;0.70;;;0.90;99.90;;;;;;5080892;28;20040;-87
2023/01/03 08:47:34;;;;;;;4.00;0.68;;;0.90;99.90;;;;;;5082943;28;20124;-86
2023/01/03 08:50:01;;;;;;;0.20;0.20;;;0.90;99.90;;;;;;5068164;28;20044;-86
2023/01/03 08:52:26;;;;;;;0.93;0.52;;;1.00;99.90;;;;;;5068528;28;20044;-87
2023/01/03 08:54:52;;;;;;;0.57;0.32;;;1.10;99.90;;;;;;5069982;28;20100;-87
2023/01/03 08:57:18;;;;;;;1.00;0.40;;;2.00;99.90;;;;;;5067030;28;20048;-89
2023/01/03 08:59:43;;;;;;;1.23;0.53;;;1.90;99.90;;;;;;5082354;28;20115;-88
2023/01/03 09:02:09;;;;;;;0.57;0.50;;;1.70;99.90;;;;;;5051917;28;20036;-90
2023/01/03 09:04:35;;;;;;;0.37;0.37;;;1.70;99.90;;;;;;5081172;28;20052;-88
2023/01/03 09:07:01;;;;;;;1.13;0.30;;;1.80;99.90;;;;;;5047104;28;20040;-88
2023/01/03 09:09:26;;;;;;;1.83;0.70;;;2.10;99.90;;;;;;5051402;28;20048;-90
2023/01/03 09:11:52;;;;;;;0.10;0.10;;;1.40;99.90;;;;;;5070666;28;20043;-88
2023/01/03 09:14:17;;;;;;;2.10;0.40;;;1.80;99.90;;;;;;5062133;28;20044;-89
2023/01/03 09:16:43;;;;;;;0.20;0.20;;;1.60;99.90;;;;;;5030762;28;20398;-89
2023/01/03 09:19:09;;;;;;;0.67;0.23;;;1.60;99.90;;;;;;5030769;28;20052;-89
2023/01/03 09:21:35;;;;;;;0.20;0.20;;;1.70;99.90;;;;;;5065461;28;20431;-91
2023/01/03 09:24:01;;;;;;;0.53;0.30;;;1.80;99.90;;;;;;5078972;28;20032;-88
2023/01/03 09:26:26;;;;;;;0.10;0.10;;;1.90;99.90;;;;;;5080653;28;20039;-88
2023/01/03 09:28:52;;;;;;;0.37;0.27;;;1.90;99.90;;;;;;5065959;28;20047;-88
2023/01/03 09:31:18;;;;;;;1.10;0.30;;;2.00;99.90;;;;;;5032430;28;20052;-88
2023/01/03 09:33:43;;;;;;;2.53;0.53;;;2.60;99.90;;;;;;5080340;28;20049;-90
2023/01/03 09:36:09;;;;;;;1.30;0.47;;;3.10;99.90;;;;;;5082748;28;20041;-90
2023/01/03 09:38:35;;;;;;;1.63;1.33;;;2.40;99.90;;;;;;5066055;28;20109;-92
2023/01/03 09:41:10;;;;;;;0.15;0.15;;;1.80;99.90;;;;;;5076445;28;20053;-89
2023/01/03 09:43:47;;;;;;;1.17;0.50;;;2.30;99.90;;;;;;5074508;28;20051;-89
2023/01/03 09:46:21;;;;;;;0.10;0.10;;;2.40;99.90;;;;;;5091279;28;20057;-90
2023/01/03 09:48:50;;;;;;;3.47;1.42;;;3.20;99.90;;;;;;5093782;28;20120;-90
2023/01/03 10:03:44;;;;;;;0.30;0.30;;;3.00;99.90;;;;;;5021325;28;20107;-89
2023/01/03 10:06:21;;;;;;;1.40;0.43;;;3.10;99.90;;;;;;5075460;28;20036;-89
2023/01/03 10:09:20;;;;;;;0.52;0.32;;;3.20;99.90;;;;;;5073316;28;20048;-90
2023/01/03 10:12:14;;;;;;;1.08;0.70;;;3.30;99.90;;;;;;5074296;28;20483;-89
2023/01/03 10:15:04;;;;;;;0.95;0.70;;;3.30;99.90;;;;;;5058081;28;20379;-94
2023/01/03 10:18:07;;;;;;;2.28;1.48;;;3.30;99.90;;;;;;5074780;28;20036;-89
2023/01/03 10:20:38;;;;;;;3.65;0.60;;;3.40;99.90;;;;;;5078504;28;20048;-89
2023/01/03 10:23:09;;;;;;;2.45;1.33;;;3.50;99.90;;;;;;5061061;28;20055;-89
2023/01/03 10:25:38;;;;;;;0.57;0.43;;;3.50;99.90;;;;;;5062204;28;20087;-89
2023/01/03 10:28:16;;;;;;;1.35;0.70;;;3.60;99.90;;;;;;5061639;28;20070;-90
2023/01/03 10:31:03;;;;;;;3.72;0.60;;;3.60;99.90;;;;;;5078283;28;20432;-90
2023/01/03 10:33:36;;;;;;;2.90;1.52;;;2.40;99.90;;;;;;5078314;28;20048;-89
2023/01/03 10:36:04;;;;;;;0.90;0.22;;;3.70;99.90;;;;;;5061328;28;20063;-89
2023/01/03 10:38:36;;;;;;;0.65;0.65;;;3.70;99.90;;;;;;5065151;28;20085;-89
2023/01/03 10:41:33;;;;;;;1.02;0.38;;;3.80;99.90;;;;;;5098311;28;20370;-89
2023/01/03 10:44:03;;;;;;;3.10;1.15;;;3.80;99.90;;;;;;5080552;28;20059;-91
2023/01/03 10:46:32;;;;;;;0.13;0.10;;;3.80;99.90;;;;;;5072587;28;20536;-91
2023/01/03 10:49:22;;;;;;;3.80;0.73;;;3.90;99.90;;;;;;5061121;28;20049;-89
2023/01/03 10:52:15;;;;;;;1.52;0.63;;;4.00;99.90;;;;;;5060807;28;20044;-90
2023/01/03 10:55:03;;;;;;;5.70;0.85;;;3.90;99.90;;;;;;5078187;28;20044;-89
2023/01/03 10:57:59;;;;;;;0.80;0.25;;;4.90;99.90;;;;;;5078876;28;20462;-87
2023/01/03 11:00:41;;;;;;;3.55;0.57;;;4.20;99.90;;;;;;5061859;28;20051;-87
2023/01/03 11:03:24;;;;;;;0.63;0.43;;;4.30;99.90;;;;;;5061898;28;20109;-88
2023/01/03 11:05:59;;;;;;;1.77;0.63;;;4.40;99.90;;;;;;5061924;28;20150;-88
2023/01/03 11:08:43;;;;;;;2.30;1.17;;;4.40;99.90;;;;;;5061502;28;20044;-88
2023/01/03 11:11:33;;;;;;;1.48;1.05;;;4.40;99.90;;;;;;5060936;28;20086;-87
2023/01/03 11:14:19;;;;;;;2.72;0.68;;;4.40;99.90;;;;;;5092060;28;20096;-87
2023/01/03 11:16:51;;;;;;;1.17;0.68;;;4.50;99.90;;;;;;5093134;28;20036;-90
2023/01/03 11:19:19;;;;;;;3.03;0.98;;;4.50;99.90;;;;;;5075855;28;20078;-87
2023/01/03 11:21:53;;;;;;;0.98;0.50;;;4.50;99.90;;;;;;5077690;28;20052;-92
2023/01/03 11:24:57;;;;;;;0.65;0.50;;;4.50;99.90;;;;;;5079028;28;20501;-87
2023/01/03 11:27:45;;;;;;;0.73;0.73;;;4.50;99.90;;;;;;5061181;28;20071;-88
2023/01/03 11:30:22;;;;;;;0.73;0.38;;;4.60;99.90;;;;;;5076540;28;20434;-89
2023/01/03 11:33:18;;;;;;;1.35;1.27;;;4.60;99.90;;;;;;5080264;28;20044;-88
2023/01/03 11:35:47;;;;;;;0.98;0.93;;;4.60;99.90;;;;;;5097595;28;20148;-89
2023/01/03 11:38:12;;;;;;;2.78;0.77;;;4.70;99.90;;;;;;5073795;28;20039;-88
2023/01/03 11:40:53;;;;;;;1.70;1.20;;;4.70;99.90;;;;;;5060345;28;20056;-89
2023/01/03 11:43:24;;;;;;;0.88;0.30;;;4.70;99.90;;;;;;5060580;28;20444;-89
2023/01/03 11:46:26;;;;;;;1.42;0.40;;;4.80;99.90;;;;;;5090970;28;20040;-89
2023/01/03 11:48:58;;;;;;;0.45;0.30;;;4.80;99.90;;;;;;5083658;28;20489;-91
2023/01/03 11:51:33;;;;;;;1.05;0.50;;;4.90;99.90;;;;;;5080559;28;20051;-88
2023/01/03 11:54:28;;;;;;;1.23;0.90;;;4.90;99.90;;;;;;5072348;28;20044;-89
2023/01/03 11:56:55;;;;;;;2.20;0.88;;;5.10;99.90;;;;;;5008419;28;20054;-92
2023/01/03 11:59:39;;;;;;;1.75;0.68;;;4.90;99.90;;;;;;5064776;28;20105;-89
2023/01/03 12:02:26;;;;;;;2.25;0.60;;;5.00;99.90;;;;;;5092715;28;20078;-88
2023/01/03 12:05:10;;;;;;;1.00;0.90;;;5.00;99.90;;;;;;5060157;28;20051;-89
2023/01/03 12:07:50;;;;;;;0.45;0.35;;;5.00;99.90;;;;;;5059604;28;20058;-89
2023/01/03 12:10:44;;;;;;;1.00;0.43;;;5.00;99.90;;;;;;5079497;28;20107;-89
2023/01/03 12:16:46;;;;;;;0.88;0.25;;;5.00;99.90;;;;;;5086535;28;20093;-87
2023/01/03 12:19:37;;;;;;;0.95;0.45;;;5.10;99.90;;;;;;5072138;28;20036;-88
2023/01/03 12:22:11;;;;;;;1.98;1.55;;;5.10;99.90;;;;;;5076333;28;20055;-88
2023/01/03 12:25:04;;;;;;;1.33;0.73;;;5.10;99.90;;;;;;5071882;28;20043;-87
2023/01/03 12:27:45;;;;;;;1.45;1.10;;;5.10;99.90;;;;;;5094231;28;20047;-87
2023/01/03 12:30:30;;;;;;;2.15;0.95;;;5.10;99.90;;;;;;5076568;28;20047;-87
2023/01/03 12:33:06;;;;;;;0.35;0.30;;;5.10;99.90;;;;;;5082827;28;20386;-89
2023/01/03 12:35:55;;;;;;;1.20;0.43;;;5.10;99.90;;;;;;5096662;28;20044;-88
2023/01/03 12:38:26;;;;;;;0.80;0.60;;;5.80;99.90;;;;;;5078317;28;20044;-88
2023/01/03 12:41:06;;;;;;;2.00;0.85;;;5.20;99.90;;;;;;5079326;28;20043;-87
2023/01/03 12:43:44;;;;;;;1.05;0.68;;;5.20;99.90;;;;;;5096412;28;20059;-87
2023/01/03 12:46:18;;;;;;;1.98;0.50;;;5.20;99.90;;;;;;5079687;28;20090;-85
2023/01/03 12:49:14;;;;;;;1.15;0.52;;;5.30;99.90;;;;;;5079646;28;20406;-87
2023/01/03 12:51:40;;;;;;;1.48;0.40;;;5.30;99.90;;;;;;5095593;28;20059;-88
2023/01/03 12:54:41;;;;;;;1.87;0.97;;;5.10;99.90;;;;;;5058564;28;20044;-88
2023/01/03 12:57:44;;;;;;;0.93;0.40;;;5.30;99.90;;;;;;5051732;28;20129;-88
2023/01/03 13:00:18;;;;;;;1.85;0.63;;;5.30;99.90;;;;;;5075487;28;20043;-86
2023/01/03 13:02:58;;;;;;;1.58;0.50;;;5.40;99.90;;;;;;5075272;28;20047;-87
2023/01/03 13:05:35;;;;;;;0.20;0.20;;;5.40;99.90;;;;;;5075432;28;20052;-87
2023/01/03 13:08:07;;;;;;;;;;;5.40;99.90;;;;;;5089908;28;20056;-89
2023/01/03 13:10:37;;;;;;;0.85;0.38;;;5.40;99.90;;;;;;5096577;28;19927;-85
2023/01/03 13:13:03;;;;;;;2.85;1.02;;;5.40;99.90;;;;;;5092446;28;20050;-86
2023/01/03 13:15:30;;;;;;;3.50;1.20;;;5.50;99.90;;;;;;5077419;28;20097;-87
2023/01/03 13:18:17;;;;;;;1.52;0.47;;;5.50;99.90;;;;;;5078504;28;20047;-86
2023/01/03 13:20:46;;;;;;;0.15;0.13;;;5.50;99.90;;;;;;5096354;28;20505;-87
2023/01/03 13:27:21;;;;;;;0.80;0.30;;;5.50;99.90;;;;;;5031974;28;20052;-87
2023/01/03 13:33:27;;;;;;;2.60;0.70;;;5.60;99.90;;;;;;5031510;28;20032;-87
2023/01/03 13:35:59;;;;;;;0.20;0.17;;;5.60;99.90;;;;;;5014955;28;20296;-86
2023/01/03 13:45:29;;;;;;;0.10;0.10;;;5.70;99.90;;;;;;5036210;28;20315;-87
2023/01/03 13:47:55;;;;;;;1.27;0.20;;;5.70;99.90;;;;;;4998331;28;20046;-87
2023/01/03 13:50:32;;;;;;;0.50;0.40;;;5.70;99.90;;;;;;5013812;28;20200;-87
2023/01/03 13:53:09;;;;;;;1.85;0.43;;;5.80;99.90;;;;;;5015521;28;20076;-87
2023/01/03 13:55:36;;;;;;;0.82;0.70;;;5.80;99.90;;;;;;5002591;28;20060;-87
2023/01/03 13:58:23;;;;;;;0.57;0.57;;;5.80;99.90;;;;;;5023061;28;20557;-88
2023/01/03 14:00:51;;;;;;;1.90;0.20;;;5.80;99.90;;;;;;5036683;28;20057;-91
2023/01/03 14:03:44;;;;;;;0.73;0.40;;;5.80;99.90;;;;;;5038478;28;20083;-87
2023/01/03 14:17:31;;;;;;;0.77;0.73;;;5.80;99.90;;;;;;5117635;28;20123;-87
2023/01/03 14:23:43;;;;;;;0.65;0.20;;;5.90;99.90;;;;;;5117578;28;20133;-87
2023/01/03 14:30:29;;;;;;;0.55;0.43;;;5.90;99.90;;;;;;5117374;28;20038;-86
2023/01/03 14:33:33;;;;;;;0.65;0.38;;;5.90;99.90;;;;;;5099422;28;20611;-87
2023/01/03 14:36:14;;;;;;;0.20;0.10;;;6.00;99.90;;;;;;5099777;28;20093;-87
2023/01/03 14:38:51;;;;;;;1.33;0.68;;;6.00;99.90;;;;;;5083331;28;20134;-87
2023/01/03 14:41:36;;;;;;;0.80;0.37;;;6.00;99.90;;;;;;5099683;28;20540;-87
2023/01/03 14:44:48;;;;;;;0.82;0.30;;;6.10;99.90;;;;;;5098761;28;20047;-87
2023/01/03 14:47:16;;;;;;;0.65;0.65;;;6.10;99.90;;;;;;5082583;28;20040;-87
2023/01/03 14:50:02;;;;;;;1.23;0.63;;;6.10;99.90;;;;;;5099211;28;20055;-87
2023/01/03 14:56:12;;;;;;;1.98;0.35;;;6.10;99.90;;;;;;5116893;28;20429;-87
2023/01/03 15:02:43;;;;;;;0.20;0.10;;;6.20;99.90;;;;;;5116816;28;20039;-86
2023/01/03 15:09:10;;;;;;;;;;;6.20;99.90;;;;;;5117123;28;20038;-87
2023/01/03 15:15:26;;;;;;;;;;;6.20;99.90;;;;;;5117164;28;20095;-87